sensor_id;sensor_type;location;lat;lon;timestamp;P1;durP1;ratioP1;P2;durP2;ratioP2
1136;SDS011;557;48.466;7.950;2024-01-10T00:00:16;33.83;;;19.90;;
1136;SDS011;557;48.466;7.950;2024-01-10T00:02:42;29.67;;;20.10;;
1136;SDS011;557;48.466;7.950;2024-01-10T00:05:09;36.07;;;21.40;;
1136;SDS011;557;48.466;7.950;2024-01-10T00:07:36;35.33;;;22.60;;
1136;SDS011;557;48.466;7.950;2024-01-10T00:10:05;35.13;;;20.30;;
1136;SDS011;557;48.466;7.950;2024-01-10T00:12:33;38.37;;;23.60;;
1136;SDS011;557;48.466;7.950;2024-01-10T00:15:02;36.70;;;22.80;;
1136;SDS011;557;48.466;7.950;2024-01-10T00:17:30;33.20;;;21.13;;
1136;SDS011;557;48.466;7.950;2024-01-10T00:19:56;35.73;;;22.73;;
1136;SDS011;557;48.466;7.950;2024-01-10T00:22:23;33.03;;;20.80;;
1136;SDS011;557;48.466;7.950;2024-01-10T00:24:50;31.17;;;20.50;;
1136;SDS011;557;48.466;7.950;2024-01-10T00:27:18;34.70;;;21.60;;
1136;SDS011;557;48.466;7.950;2024-01-10T00:29:45;37.60;;;21.87;;
1136;SDS011;557;48.466;7.950;2024-01-10T00:32:12;33.90;;;20.67;;
1136;SDS011;557;48.466;7.950;2024-01-10T00:34:39;34.97;;;21.67;;
1136;SDS011;557;48.466;7.950;2024-01-10T00:37:06;34.43;;;21.80;;
1136;SDS011;557;48.466;7.950;2024-01-10T00:39:32;31.20;;;20.10;;
1136;SDS011;557;48.466;7.950;2024-01-10T00:41:59;35.80;;;21.03;;
1136;SDS011;557;48.466;7.950;2024-01-10T00:44:28;33.07;;;20.03;;
1136;SDS011;557;48.466;7.950;2024-01-10T00:46:54;28.63;;;19.00;;
1136;SDS011;557;48.466;7.950;2024-01-10T00:49:21;32.10;;;19.23;;
1136;SDS011;557;48.466;7.950;2024-01-10T00:51:48;29.40;;;19.63;;
1136;SDS011;557;48.466;7.950;2024-01-10T00:54:15;32.27;;;18.90;;
1136;SDS011;557;48.466;7.950;2024-01-10T00:56:42;28.77;;;20.33;;
1136;SDS011;557;48.466;7.950;2024-01-10T00:59:08;29.00;;;19.23;;
1136;SDS011;557;48.466;7.950;2024-01-10T01:01:37;31.10;;;20.17;;
1136;SDS011;557;48.466;7.950;2024-01-10T01:04:03;32.33;;;19.57;;
1136;SDS011;557;48.466;7.950;2024-01-10T01:06:30;26.80;;;18.40;;
1136;SDS011;557;48.466;7.950;2024-01-10T01:08:57;32.70;;;20.07;;
1136;SDS011;557;48.466;7.950;2024-01-10T01:11:24;31.50;;;20.20;;
1136;SDS011;557;48.466;7.950;2024-01-10T01:13:51;30.60;;;19.90;;
1136;SDS011;557;48.466;7.950;2024-01-10T01:16:18;37.80;;;20.97;;
1136;SDS011;557;48.466;7.950;2024-01-10T01:18:46;31.57;;;19.50;;
1136;SDS011;557;48.466;7.950;2024-01-10T01:21:13;29.50;;;18.60;;
1136;SDS011;557;48.466;7.950;2024-01-10T01:23:40;31.37;;;19.20;;
1136;SDS011;557;48.466;7.950;2024-01-10T01:26:07;32.73;;;19.73;;
1136;SDS011;557;48.466;7.950;2024-01-10T01:28:34;28.80;;;19.63;;
1136;SDS011;557;48.466;7.950;2024-01-10T01:31:00;35.10;;;20.93;;
1136;SDS011;557;48.466;7.950;2024-01-10T01:33:27;32.37;;;21.13;;
1136;SDS011;557;48.466;7.950;2024-01-10T01:35:55;29.20;;;19.13;;
1136;SDS011;557;48.466;7.950;2024-01-10T01:38:23;27.70;;;18.33;;
1136;SDS011;557;48.466;7.950;2024-01-10T01:40:50;30.67;;;19.17;;
1136;SDS011;557;48.466;7.950;2024-01-10T01:43:18;27.93;;;19.07;;
1136;SDS011;557;48.466;7.950;2024-01-10T01:45:46;30.07;;;20.30;;
1136;SDS011;557;48.466;7.950;2024-01-10T01:48:13;33.10;;;19.20;;
1136;SDS011;557;48.466;7.950;2024-01-10T01:50:40;31.30;;;19.90;;
1136;SDS011;557;48.466;7.950;2024-01-10T01:53:09;33.37;;;20.60;;
1136;SDS011;557;48.466;7.950;2024-01-10T01:55:36;33.23;;;20.13;;
1136;SDS011;557;48.466;7.950;2024-01-10T01:58:03;29.03;;;18.30;;
1136;SDS011;557;48.466;7.950;2024-01-10T02:00:30;34.97;;;18.03;;
1136;SDS011;557;48.466;7.950;2024-01-10T02:02:57;27.23;;;18.30;;
1136;SDS011;557;48.466;7.950;2024-01-10T02:05:25;28.97;;;19.77;;
1136;SDS011;557;48.466;7.950;2024-01-10T02:07:52;26.03;;;17.63;;
1136;SDS011;557;48.466;7.950;2024-01-10T02:10:21;25.73;;;17.70;;
1136;SDS011;557;48.466;7.950;2024-01-10T02:12:49;32.00;;;19.10;;
1136;SDS011;557;48.466;7.950;2024-01-10T02:15:16;29.90;;;19.00;;
1136;SDS011;557;48.466;7.950;2024-01-10T02:17:43;31.40;;;18.33;;
1136;SDS011;557;48.466;7.950;2024-01-10T02:20:10;29.60;;;18.73;;
1136;SDS011;557;48.466;7.950;2024-01-10T02:22:38;25.03;;;18.57;;
1136;SDS011;557;48.466;7.950;2024-01-10T02:25:06;26.07;;;17.97;;
1136;SDS011;557;48.466;7.950;2024-01-10T02:27:34;23.40;;;16.17;;
1136;SDS011;557;48.466;7.950;2024-01-10T02:30:02;27.80;;;18.80;;
1136;SDS011;557;48.466;7.950;2024-01-10T02:32:30;29.23;;;18.10;;
1136;SDS011;557;48.466;7.950;2024-01-10T02:34:57;25.40;;;18.30;;
1136;SDS011;557;48.466;7.950;2024-01-10T02:37:24;32.77;;;19.50;;
1136;SDS011;557;48.466;7.950;2024-01-10T02:39:51;27.13;;;18.10;;
1136;SDS011;557;48.466;7.950;2024-01-10T02:42:19;24.67;;;17.27;;
1136;SDS011;557;48.466;7.950;2024-01-10T02:44:46;26.57;;;16.93;;
1136;SDS011;557;48.466;7.950;2024-01-10T02:47:13;23.90;;;16.53;;
1136;SDS011;557;48.466;7.950;2024-01-10T02:49:40;28.33;;;14.93;;
1136;SDS011;557;48.466;7.950;2024-01-10T02:52:06;23.60;;;16.40;;
1136;SDS011;557;48.466;7.950;2024-01-10T02:54:33;26.33;;;16.30;;
1136;SDS011;557;48.466;7.950;2024-01-10T02:57:00;23.63;;;17.33;;
1136;SDS011;557;48.466;7.950;2024-01-10T02:59:28;27.23;;;17.30;;
1136;SDS011;557;48.466;7.950;2024-01-10T03:01:55;23.83;;;15.77;;
1136;SDS011;557;48.466;7.950;2024-01-10T03:04:22;25.73;;;16.80;;
1136;SDS011;557;48.466;7.950;2024-01-10T03:06:49;23.47;;;15.30;;
1136;SDS011;557;48.466;7.950;2024-01-10T03:09:16;27.87;;;17.70;;
1136;SDS011;557;48.466;7.950;2024-01-10T03:11:42;25.40;;;15.60;;
1136;SDS011;557;48.466;7.950;2024-01-10T03:14:10;22.73;;;15.30;;
1136;SDS011;557;48.466;7.950;2024-01-10T03:16:39;23.80;;;16.80;;
1136;SDS011;557;48.466;7.950;2024-01-10T03:19:06;25.47;;;16.60;;
1136;SDS011;557;48.466;7.950;2024-01-10T03:21:32;29.70;;;17.77;;
1136;SDS011;557;48.466;7.950;2024-01-10T03:23:59;26.77;;;17.87;;
1136;SDS011;557;48.466;7.950;2024-01-10T03:26:27;23.93;;;16.27;;
1136;SDS011;557;48.466;7.950;2024-01-10T03:28:55;28.40;;;17.03;;
1136;SDS011;557;48.466;7.950;2024-01-10T03:31:22;21.70;;;15.30;;
1136;SDS011;557;48.466;7.950;2024-01-10T03:33:51;25.50;;;17.00;;
1136;SDS011;557;48.466;7.950;2024-01-10T03:36:18;21.50;;;15.93;;
1136;SDS011;557;48.466;7.950;2024-01-10T03:38:45;24.70;;;16.80;;
1136;SDS011;557;48.466;7.950;2024-01-10T03:41:12;22.20;;;15.93;;
1136;SDS011;557;48.466;7.950;2024-01-10T03:43:40;31.77;;;17.27;;
1136;SDS011;557;48.466;7.950;2024-01-10T03:46:07;28.80;;;17.33;;
1136;SDS011;557;48.466;7.950;2024-01-10T03:48:34;26.07;;;17.30;;
1136;SDS011;557;48.466;7.950;2024-01-10T03:51:02;27.10;;;16.93;;
1136;SDS011;557;48.466;7.950;2024-01-10T03:53:29;23.80;;;16.23;;
1136;SDS011;557;48.466;7.950;2024-01-10T03:55:57;27.40;;;18.83;;
1136;SDS011;557;48.466;7.950;2024-01-10T03:58:23;23.40;;;16.47;;
1136;SDS011;557;48.466;7.950;2024-01-10T04:00:51;22.67;;;17.00;;
1136;SDS011;557;48.466;7.950;2024-01-10T04:03:18;23.57;;;16.20;;
1136;SDS011;557;48.466;7.950;2024-01-10T04:05:45;22.73;;;16.47;;
1136;SDS011;557;48.466;7.950;2024-01-10T04:08:13;25.30;;;16.60;;
1136;SDS011;557;48.466;7.950;2024-01-10T04:10:40;29.10;;;17.10;;
1136;SDS011;557;48.466;7.950;2024-01-10T04:13:07;27.00;;;16.80;;
1136;SDS011;557;48.466;7.950;2024-01-10T04:15:34;26.53;;;16.10;;
1136;SDS011;557;48.466;7.950;2024-01-10T04:18:01;32.83;;;19.53;;
1136;SDS011;557;48.466;7.950;2024-01-10T04:20:28;27.20;;;16.90;;
1136;SDS011;557;48.466;7.950;2024-01-10T04:22:54;24.67;;;16.73;;
1136;SDS011;557;48.466;7.950;2024-01-10T04:25:23;25.60;;;18.00;;
1136;SDS011;557;48.466;7.950;2024-01-10T04:27:49;23.70;;;16.80;;
1136;SDS011;557;48.466;7.950;2024-01-10T04:30:16;28.03;;;17.40;;
1136;SDS011;557;48.466;7.950;2024-01-10T04:32:43;21.63;;;15.10;;
1136;SDS011;557;48.466;7.950;2024-01-10T04:35:10;24.50;;;16.20;;
1136;SDS011;557;48.466;7.950;2024-01-10T04:37:37;26.37;;;16.30;;
1136;SDS011;557;48.466;7.950;2024-01-10T04:40:04;30.23;;;17.90;;
1136;SDS011;557;48.466;7.950;2024-01-10T04:42:34;26.07;;;17.83;;
1136;SDS011;557;48.466;7.950;2024-01-10T04:45:00;22.63;;;17.20;;
1136;SDS011;557;48.466;7.950;2024-01-10T04:47:28;25.70;;;17.30;;
1136;SDS011;557;48.466;7.950;2024-01-10T04:49:55;22.10;;;15.43;;
1136;SDS011;557;48.466;7.950;2024-01-10T04:52:22;20.33;;;15.73;;
1136;SDS011;557;48.466;7.950;2024-01-10T04:54:49;23.53;;;16.20;;
1136;SDS011;557;48.466;7.950;2024-01-10T04:57:15;21.67;;;14.87;;
1136;SDS011;557;48.466;7.950;2024-01-10T04:59:44;25.53;;;16.17;;
1136;SDS011;557;48.466;7.950;2024-01-10T05:02:11;26.07;;;16.00;;
1136;SDS011;557;48.466;7.950;2024-01-10T05:04:38;26.73;;;16.30;;
1136;SDS011;557;48.466;7.950;2024-01-10T05:07:04;22.53;;;15.20;;
1136;SDS011;557;48.466;7.950;2024-01-10T05:09:31;28.93;;;16.03;;
1136;SDS011;557;48.466;7.950;2024-01-10T05:11:58;23.90;;;15.37;;
1136;SDS011;557;48.466;7.950;2024-01-10T05:14:25;25.17;;;16.23;;
1136;SDS011;557;48.466;7.950;2024-01-10T05:16:53;23.57;;;15.03;;
1136;SDS011;557;48.466;7.950;2024-01-10T05:19:20;23.97;;;16.07;;
1136;SDS011;557;48.466;7.950;2024-01-10T05:21:47;25.70;;;16.20;;
1136;SDS011;557;48.466;7.950;2024-01-10T05:24:14;22.60;;;15.00;;
1136;SDS011;557;48.466;7.950;2024-01-10T05:26:41;22.33;;;15.47;;
1136;SDS011;557;48.466;7.950;2024-01-10T05:29:07;26.27;;;15.73;;
1136;SDS011;557;48.466;7.950;2024-01-10T05:31:34;22.63;;;15.50;;
1136;SDS011;557;48.466;7.950;2024-01-10T05:34:02;27.77;;;15.80;;
1136;SDS011;557;48.466;7.950;2024-01-10T05:36:30;20.83;;;14.90;;
1136;SDS011;557;48.466;7.950;2024-01-10T05:38:59;27.67;;;15.83;;
1136;SDS011;557;48.466;7.950;2024-01-10T05:41:25;23.40;;;15.47;;
1136;SDS011;557;48.466;7.950;2024-01-10T05:43:52;18.97;;;13.70;;
1136;SDS011;557;48.466;7.950;2024-01-10T05:46:19;20.40;;;14.47;;
1136;SDS011;557;48.466;7.950;2024-01-10T05:48:46;23.47;;;14.43;;
1136;SDS011;557;48.466;7.950;2024-01-10T05:51:14;24.13;;;15.07;;
1136;SDS011;557;48.466;7.950;2024-01-10T05:53:42;21.40;;;13.67;;
1136;SDS011;557;48.466;7.950;2024-01-10T05:56:09;21.77;;;14.47;;
1136;SDS011;557;48.466;7.950;2024-01-10T05:58:36;19.67;;;15.23;;
1136;SDS011;557;48.466;7.950;2024-01-10T06:01:03;23.40;;;15.67;;
1136;SDS011;557;48.466;7.950;2024-01-10T06:03:32;27.20;;;16.30;;
1136;SDS011;557;48.466;7.950;2024-01-10T06:05:59;25.97;;;16.83;;
1136;SDS011;557;48.466;7.950;2024-01-10T06:08:27;29.10;;;16.70;;
1136;SDS011;557;48.466;7.950;2024-01-10T06:10:54;24.47;;;16.23;;
1136;SDS011;557;48.466;7.950;2024-01-10T06:13:21;24.03;;;14.80;;
1136;SDS011;557;48.466;7.950;2024-01-10T06:15:48;31.33;;;17.43;;
1136;SDS011;557;48.466;7.950;2024-01-10T06:18:15;22.90;;;16.37;;
1136;SDS011;557;48.466;7.950;2024-01-10T06:20:42;25.87;;;17.43;;
1136;SDS011;557;48.466;7.950;2024-01-10T06:23:09;28.17;;;18.00;;
1136;SDS011;557;48.466;7.950;2024-01-10T06:25:37;26.40;;;17.90;;
1136;SDS011;557;48.466;7.950;2024-01-10T06:28:04;25.10;;;17.40;;
1136;SDS011;557;48.466;7.950;2024-01-10T06:30:32;26.83;;;16.97;;
1136;SDS011;557;48.466;7.950;2024-01-10T06:33:00;26.93;;;17.37;;
1136;SDS011;557;48.466;7.950;2024-01-10T06:35:27;25.57;;;15.57;;
1136;SDS011;557;48.466;7.950;2024-01-10T06:37:54;27.83;;;17.90;;
1136;SDS011;557;48.466;7.950;2024-01-10T06:40:21;22.23;;;15.07;;
1136;SDS011;557;48.466;7.950;2024-01-10T06:42:50;22.50;;;15.90;;
1136;SDS011;557;48.466;7.950;2024-01-10T06:45:17;23.70;;;15.83;;
1136;SDS011;557;48.466;7.950;2024-01-10T06:47:45;22.57;;;15.70;;
1136;SDS011;557;48.466;7.950;2024-01-10T06:50:13;27.73;;;17.40;;
1136;SDS011;557;48.466;7.950;2024-01-10T06:52:40;28.40;;;17.73;;
1136;SDS011;557;48.466;7.950;2024-01-10T06:55:07;34.47;;;16.90;;
1136;SDS011;557;48.466;7.950;2024-01-10T06:57:35;26.87;;;18.40;;
1136;SDS011;557;48.466;7.950;2024-01-10T07:00:03;27.20;;;16.43;;
1136;SDS011;557;48.466;7.950;2024-01-10T07:02:35;28.53;;;17.70;;
1136;SDS011;557;48.466;7.950;2024-01-10T07:05:03;27.80;;;18.33;;
1136;SDS011;557;48.466;7.950;2024-01-10T07:07:33;26.57;;;17.70;;
1136;SDS011;557;48.466;7.950;2024-01-10T07:10:00;28.20;;;17.27;;
1136;SDS011;557;48.466;7.950;2024-01-10T07:12:30;28.97;;;19.30;;
1136;SDS011;557;48.466;7.950;2024-01-10T07:14:57;33.33;;;17.93;;
1136;SDS011;557;48.466;7.950;2024-01-10T07:17:25;28.40;;;19.27;;
1136;SDS011;557;48.466;7.950;2024-01-10T07:19:52;25.83;;;17.07;;
1136;SDS011;557;48.466;7.950;2024-01-10T07:22:21;29.60;;;17.90;;
1136;SDS011;557;48.466;7.950;2024-01-10T07:24:49;29.10;;;18.33;;
1136;SDS011;557;48.466;7.950;2024-01-10T07:27:16;30.53;;;18.40;;
1136;SDS011;557;48.466;7.950;2024-01-10T07:29:43;34.23;;;19.93;;
1136;SDS011;557;48.466;7.950;2024-01-10T07:32:11;27.60;;;17.80;;
1136;SDS011;557;48.466;7.950;2024-01-10T07:34:39;30.20;;;17.23;;
1136;SDS011;557;48.466;7.950;2024-01-10T07:37:07;27.60;;;16.10;;
1136;SDS011;557;48.466;7.950;2024-01-10T07:39:36;31.70;;;18.10;;
1136;SDS011;557;48.466;7.950;2024-01-10T07:42:03;31.60;;;17.87;;
1136;SDS011;557;48.466;7.950;2024-01-10T07:44:30;33.30;;;18.77;;
1136;SDS011;557;48.466;7.950;2024-01-10T07:46:57;28.77;;;18.47;;
1136;SDS011;557;48.466;7.950;2024-01-10T07:49:24;35.70;;;21.57;;
1136;SDS011;557;48.466;7.950;2024-01-10T07:51:52;30.40;;;18.10;;
1136;SDS011;557;48.466;7.950;2024-01-10T07:54:19;36.83;;;21.63;;
1136;SDS011;557;48.466;7.950;2024-01-10T07:56:46;40.10;;;25.40;;
1136;SDS011;557;48.466;7.950;2024-01-10T07:59:13;44.63;;;27.87;;
1136;SDS011;557;48.466;7.950;2024-01-10T08:01:43;66.37;;;38.27;;
1136;SDS011;557;48.466;7.950;2024-01-10T08:04:10;40.90;;;25.80;;
1136;SDS011;557;48.466;7.950;2024-01-10T08:06:37;42.80;;;25.33;;
1136;SDS011;557;48.466;7.950;2024-01-10T08:09:06;40.23;;;24.20;;
1136;SDS011;557;48.466;7.950;2024-01-10T08:11:33;41.23;;;23.27;;
1136;SDS011;557;48.466;7.950;2024-01-10T08:14:00;40.63;;;23.20;;
1136;SDS011;557;48.466;7.950;2024-01-10T08:16:27;38.93;;;22.40;;
1136;SDS011;557;48.466;7.950;2024-01-10T08:18:54;34.90;;;21.33;;
1136;SDS011;557;48.466;7.950;2024-01-10T08:21:21;33.23;;;21.07;;
1136;SDS011;557;48.466;7.950;2024-01-10T08:23:48;37.57;;;23.53;;
1136;SDS011;557;48.466;7.950;2024-01-10T08:26:16;35.57;;;21.57;;
1136;SDS011;557;48.466;7.950;2024-01-10T08:28:43;33.10;;;20.23;;
1136;SDS011;557;48.466;7.950;2024-01-10T08:31:10;36.10;;;20.07;;
1136;SDS011;557;48.466;7.950;2024-01-10T08:33:37;36.03;;;22.60;;
1136;SDS011;557;48.466;7.950;2024-01-10T08:36:05;37.50;;;21.73;;
1136;SDS011;557;48.466;7.950;2024-01-10T08:38:33;34.33;;;21.90;;
1136;SDS011;557;48.466;7.950;2024-01-10T08:41:00;39.53;;;23.77;;
1136;SDS011;557;48.466;7.950;2024-01-10T08:43:29;34.97;;;20.83;;
1136;SDS011;557;48.466;7.950;2024-01-10T08:45:56;36.37;;;20.00;;
1136;SDS011;557;48.466;7.950;2024-01-10T08:48:23;33.50;;;19.60;;
1136;SDS011;557;48.466;7.950;2024-01-10T08:50:50;33.70;;;19.20;;
1136;SDS011;557;48.466;7.950;2024-01-10T08:53:19;34.63;;;20.47;;
1136;SDS011;557;48.466;7.950;2024-01-10T08:55:46;34.30;;;19.57;;
1136;SDS011;557;48.466;7.950;2024-01-10T08:58:13;32.37;;;19.83;;
1136;SDS011;557;48.466;7.950;2024-01-10T09:00:41;36.70;;;19.83;;
1136;SDS011;557;48.466;7.950;2024-01-10T09:03:08;32.80;;;20.03;;
1136;SDS011;557;48.466;7.950;2024-01-10T09:05:35;35.03;;;19.93;;
1136;SDS011;557;48.466;7.950;2024-01-10T09:08:02;30.23;;;20.87;;
1136;SDS011;557;48.466;7.950;2024-01-10T09:10:29;34.20;;;20.27;;
1136;SDS011;557;48.466;7.950;2024-01-10T09:12:57;28.90;;;19.23;;
1136;SDS011;557;48.466;7.950;2024-01-10T09:15:25;33.47;;;19.77;;
1136;SDS011;557;48.466;7.950;2024-01-10T09:17:53;36.33;;;21.40;;
1136;SDS011;557;48.466;7.950;2024-01-10T09:20:20;30.20;;;18.63;;
1136;SDS011;557;48.466;7.950;2024-01-10T09:22:47;31.03;;;19.10;;
1136;SDS011;557;48.466;7.950;2024-01-10T09:25:14;31.27;;;20.87;;
1136;SDS011;557;48.466;7.950;2024-01-10T09:27:41;33.37;;;20.70;;
1136;SDS011;557;48.466;7.950;2024-01-10T09:30:09;31.47;;;21.67;;
1136;SDS011;557;48.466;7.950;2024-01-10T09:32:36;36.93;;;20.70;;
1136;SDS011;557;48.466;7.950;2024-01-10T09:35:05;28.03;;;20.47;;
1136;SDS011;557;48.466;7.950;2024-01-10T09:37:33;34.27;;;20.37;;
1136;SDS011;557;48.466;7.950;2024-01-10T09:40:00;30.63;;;19.40;;
1136;SDS011;557;48.466;7.950;2024-01-10T09:42:27;28.87;;;20.27;;
1136;SDS011;557;48.466;7.950;2024-01-10T09:44:56;30.00;;;20.23;;
1136;SDS011;557;48.466;7.950;2024-01-10T09:47:23;32.60;;;20.60;;
1136;SDS011;557;48.466;7.950;2024-01-10T09:49:50;32.83;;;21.87;;
1136;SDS011;557;48.466;7.950;2024-01-10T09:52:24;34.70;;;21.63;;
1136;SDS011;557;48.466;7.950;2024-01-10T09:54:53;29.67;;;20.03;;
1136;SDS011;557;48.466;7.950;2024-01-10T09:57:21;31.50;;;21.17;;
1136;SDS011;557;48.466;7.950;2024-01-10T09:59:49;35.00;;;23.20;;
1136;SDS011;557;48.466;7.950;2024-01-10T10:02:18;33.33;;;21.60;;
1136;SDS011;557;48.466;7.950;2024-01-10T10:04:47;31.17;;;23.37;;
1136;SDS011;557;48.466;7.950;2024-01-10T10:07:21;31.40;;;22.07;;
1136;SDS011;557;48.466;7.950;2024-01-10T10:09:48;29.43;;;22.80;;
1136;SDS011;557;48.466;7.950;2024-01-10T10:12:15;28.10;;;21.03;;
1136;SDS011;557;48.466;7.950;2024-01-10T10:14:42;32.43;;;22.93;;
1136;SDS011;557;48.466;7.950;2024-01-10T10:17:16;24.70;;;21.73;;
1136;SDS011;557;48.466;7.950;2024-01-10T10:19:44;28.43;;;22.73;;
1136;SDS011;557;48.466;7.950;2024-01-10T10:22:11;28.80;;;22.20;;
1136;SDS011;557;48.466;7.950;2024-01-10T10:24:39;30.20;;;23.70;;
1136;SDS011;557;48.466;7.950;2024-01-10T10:27:09;30.60;;;23.83;;
1136;SDS011;557;48.466;7.950;2024-01-10T10:29:38;32.00;;;23.77;;
1136;SDS011;557;48.466;7.950;2024-01-10T10:32:05;31.47;;;23.17;;
1136;SDS011;557;48.466;7.950;2024-01-10T10:34:33;31.03;;;23.57;;
1136;SDS011;557;48.466;7.950;2024-01-10T10:37:00;34.53;;;25.90;;
1136;SDS011;557;48.466;7.950;2024-01-10T10:39:27;33.93;;;24.70;;
1136;SDS011;557;48.466;7.950;2024-01-10T10:41:55;31.13;;;24.67;;
1136;SDS011;557;48.466;7.950;2024-01-10T10:44:23;34.47;;;25.63;;
1136;SDS011;557;48.466;7.950;2024-01-10T10:46:52;27.53;;;22.83;;
1136;SDS011;557;48.466;7.950;2024-01-10T10:49:22;33.47;;;23.73;;
1136;SDS011;557;48.466;7.950;2024-01-10T10:51:53;35.33;;;25.30;;
1136;SDS011;557;48.466;7.950;2024-01-10T10:54:23;30.07;;;21.07;;
1136;SDS011;557;48.466;7.950;2024-01-10T10:56:55;28.87;;;22.43;;
1136;SDS011;557;48.466;7.950;2024-01-10T10:59:25;29.60;;;22.77;;
1136;SDS011;557;48.466;7.950;2024-01-10T11:01:53;28.87;;;20.80;;
1136;SDS011;557;48.466;7.950;2024-01-10T11:04:21;27.27;;;20.83;;
1136;SDS011;557;48.466;7.950;2024-01-10T11:06:49;26.90;;;20.77;;
1136;SDS011;557;48.466;7.950;2024-01-10T11:09:16;28.47;;;21.60;;
1136;SDS011;557;48.466;7.950;2024-01-10T11:11:58;28.50;;;21.60;;
1136;SDS011;557;48.466;7.950;2024-01-10T11:14:42;27.67;;;21.60;;
1136;SDS011;557;48.466;7.950;2024-01-10T11:17:25;25.70;;;22.67;;
1136;SDS011;557;48.466;7.950;2024-01-10T11:26:00;28.00;;;22.43;;
1136;SDS011;557;48.466;7.950;2024-01-10T11:28:31;28.67;;;22.10;;
1136;SDS011;557;48.466;7.950;2024-01-10T11:30:58;24.67;;;21.97;;
1136;SDS011;557;48.466;7.950;2024-01-10T11:33:30;24.13;;;21.53;;
1136;SDS011;557;48.466;7.950;2024-01-10T11:36:07;28.83;;;22.83;;
1136;SDS011;557;48.466;7.950;2024-01-10T11:38:47;26.27;;;22.40;;
1136;SDS011;557;48.466;7.950;2024-01-10T11:41:20;24.27;;;21.23;;
1136;SDS011;557;48.466;7.950;2024-01-10T11:46:55;25.73;;;21.33;;
1136;SDS011;557;48.466;7.950;2024-01-10T11:49:23;24.60;;;21.87;;
1136;SDS011;557;48.466;7.950;2024-01-10T11:51:52;23.93;;;20.93;;
1136;SDS011;557;48.466;7.950;2024-01-10T11:54:40;27.53;;;22.73;;
1136;SDS011;557;48.466;7.950;2024-01-10T11:57:11;27.07;;;22.23;;
1136;SDS011;557;48.466;7.950;2024-01-10T11:59:41;24.73;;;20.60;;
1136;SDS011;557;48.466;7.950;2024-01-10T12:02:10;24.23;;;20.50;;
1136;SDS011;557;48.466;7.950;2024-01-10T12:04:38;30.47;;;21.70;;
1136;SDS011;557;48.466;7.950;2024-01-10T12:07:06;31.47;;;20.97;;
1136;SDS011;557;48.466;7.950;2024-01-10T12:09:33;26.90;;;21.80;;
1136;SDS011;557;48.466;7.950;2024-01-10T12:12:01;27.80;;;21.00;;
1136;SDS011;557;48.466;7.950;2024-01-10T12:14:28;29.50;;;22.17;;
1136;SDS011;557;48.466;7.950;2024-01-10T12:16:57;23.43;;;20.07;;
1136;SDS011;557;48.466;7.950;2024-01-10T12:19:25;25.27;;;20.93;;
1136;SDS011;557;48.466;7.950;2024-01-10T12:21:52;26.13;;;20.07;;
1136;SDS011;557;48.466;7.950;2024-01-10T12:24:19;24.23;;;19.40;;
1136;SDS011;557;48.466;7.950;2024-01-10T12:26:47;21.90;;;19.63;;
1136;SDS011;557;48.466;7.950;2024-01-10T12:29:16;27.80;;;20.90;;
1136;SDS011;557;48.466;7.950;2024-01-10T12:31:46;28.83;;;22.70;;
1136;SDS011;557;48.466;7.950;2024-01-10T12:34:15;27.20;;;22.40;;
1136;SDS011;557;48.466;7.950;2024-01-10T12:36:42;25.10;;;19.93;;
1136;SDS011;557;48.466;7.950;2024-01-10T12:39:09;25.80;;;20.83;;
1136;SDS011;557;48.466;7.950;2024-01-10T12:41:37;26.87;;;21.80;;
1136;SDS011;557;48.466;7.950;2024-01-10T12:44:06;23.87;;;20.40;;
1136;SDS011;557;48.466;7.950;2024-01-10T12:46:34;24.43;;;21.87;;
1136;SDS011;557;48.466;7.950;2024-01-10T12:49:01;25.00;;;21.50;;
1136;SDS011;557;48.466;7.950;2024-01-10T12:51:31;26.23;;;22.13;;
1136;SDS011;557;48.466;7.950;2024-01-10T12:54:01;28.30;;;21.77;;
1136;SDS011;557;48.466;7.950;2024-01-10T12:56:29;24.73;;;21.20;;
1136;SDS011;557;48.466;7.950;2024-01-10T12:58:56;24.60;;;21.87;;
1136;SDS011;557;48.466;7.950;2024-01-10T13:01:23;25.63;;;22.63;;
1136;SDS011;557;48.466;7.950;2024-01-10T13:03:51;27.67;;;21.70;;
1136;SDS011;557;48.466;7.950;2024-01-10T13:06:18;24.03;;;21.30;;
1136;SDS011;557;48.466;7.950;2024-01-10T13:08:48;23.87;;;21.30;;
1136;SDS011;557;48.466;7.950;2024-01-10T13:11:15;23.20;;;20.70;;
1136;SDS011;557;48.466;7.950;2024-01-10T13:13:42;25.90;;;22.77;;
1136;SDS011;557;48.466;7.950;2024-01-10T13:16:09;26.10;;;22.20;;
1136;SDS011;557;48.466;7.950;2024-01-10T13:18:36;25.57;;;22.37;;
1136;SDS011;557;48.466;7.950;2024-01-10T13:21:03;25.80;;;23.20;;
1136;SDS011;557;48.466;7.950;2024-01-10T13:23:32;26.30;;;23.40;;
1136;SDS011;557;48.466;7.950;2024-01-10T13:26:01;25.90;;;23.40;;
1136;SDS011;557;48.466;7.950;2024-01-10T13:28:28;27.17;;;24.37;;
1136;SDS011;557;48.466;7.950;2024-01-10T13:30:55;26.80;;;23.90;;
1136;SDS011;557;48.466;7.950;2024-01-10T13:33:22;26.40;;;23.80;;
1136;SDS011;557;48.466;7.950;2024-01-10T13:35:50;26.90;;;24.20;;
1136;SDS011;557;48.466;7.950;2024-01-10T13:38:17;26.80;;;23.90;;
1136;SDS011;557;48.466;7.950;2024-01-10T13:40:44;28.40;;;24.70;;
1136;SDS011;557;48.466;7.950;2024-01-10T13:43:12;27.90;;;24.80;;
1136;SDS011;557;48.466;7.950;2024-01-10T13:45:40;26.53;;;23.73;;
1136;SDS011;557;48.466;7.950;2024-01-10T13:48:07;28.00;;;25.23;;
1136;SDS011;557;48.466;7.950;2024-01-10T13:50:35;27.87;;;24.50;;
1136;SDS011;557;48.466;7.950;2024-01-10T13:53:02;26.07;;;23.27;;
1136;SDS011;557;48.466;7.950;2024-01-10T13:55:29;26.43;;;23.73;;
1136;SDS011;557;48.466;7.950;2024-01-10T13:57:56;28.17;;;25.20;;
1136;SDS011;557;48.466;7.950;2024-01-10T14:00:24;27.23;;;24.30;;
1136;SDS011;557;48.466;7.950;2024-01-10T14:02:52;29.57;;;26.47;;
1136;SDS011;557;48.466;7.950;2024-01-10T14:05:23;28.70;;;26.00;;
1136;SDS011;557;48.466;7.950;2024-01-10T14:07:51;30.20;;;27.23;;
1136;SDS011;557;48.466;7.950;2024-01-10T14:10:18;28.63;;;25.63;;
1136;SDS011;557;48.466;7.950;2024-01-10T14:12:45;26.93;;;24.23;;
1136;SDS011;557;48.466;7.950;2024-01-10T14:15:12;28.33;;;25.57;;
1136;SDS011;557;48.466;7.950;2024-01-10T14:17:41;29.57;;;26.53;;
1136;SDS011;557;48.466;7.950;2024-01-10T14:20:08;30.43;;;26.77;;
1136;SDS011;557;48.466;7.950;2024-01-10T14:22:35;28.20;;;25.60;;
1136;SDS011;557;48.466;7.950;2024-01-10T14:25:03;29.23;;;26.40;;
1136;SDS011;557;48.466;7.950;2024-01-10T14:27:30;28.13;;;25.50;;
1136;SDS011;557;48.466;7.950;2024-01-10T14:29:57;29.90;;;27.00;;
1136;SDS011;557;48.466;7.950;2024-01-10T14:32:25;28.70;;;25.60;;
1136;SDS011;557;48.466;7.950;2024-01-10T14:34:53;29.43;;;26.60;;
1136;SDS011;557;48.466;7.950;2024-01-10T14:37:21;29.60;;;26.73;;
1136;SDS011;557;48.466;7.950;2024-01-10T14:39:47;29.00;;;26.30;;
1136;SDS011;557;48.466;7.950;2024-01-10T14:42:16;29.53;;;26.57;;
1136;SDS011;557;48.466;7.950;2024-01-10T14:44:44;28.63;;;25.80;;
1136;SDS011;557;48.466;7.950;2024-01-10T14:47:11;28.93;;;26.03;;
1136;SDS011;557;48.466;7.950;2024-01-10T14:49:38;29.93;;;27.03;;
1136;SDS011;557;48.466;7.950;2024-01-10T14:52:06;29.33;;;26.53;;
1136;SDS011;557;48.466;7.950;2024-01-10T14:54:33;28.53;;;25.77;;
1136;SDS011;557;48.466;7.950;2024-01-10T14:57:00;29.00;;;26.10;;
1136;SDS011;557;48.466;7.950;2024-01-10T14:59:26;28.90;;;26.07;;
1136;SDS011;557;48.466;7.950;2024-01-10T15:01:54;29.37;;;26.47;;
1136;SDS011;557;48.466;7.950;2024-01-10T15:04:21;29.43;;;26.43;;
1136;SDS011;557;48.466;7.950;2024-01-10T15:06:48;31.97;;;27.43;;
1136;SDS011;557;48.466;7.950;2024-01-10T15:09:16;32.87;;;26.80;;
1136;SDS011;557;48.466;7.950;2024-01-10T15:11:44;33.30;;;26.10;;